Aérodrome :
LOGIN :

S'inscrire | Disclaimer

   EN    FR    IT 

 










Légende :    VFR   VFR Marginal   IFR   IFR Intensif   IFR Très Intensif
Visi : 
Plafond : 
>= 8 km
>= 3000ft
5 à 8 km
1000 à 3000 ft
1500m à 5 km
500 à 1000 ft
800 à 1500m
200 à 500 ft
< 800m
< 200 ft
Symboles :   Orages  Brouillard  Fortes neiges  Fortes précipitations  Vent > 20 kt
SIGMETs :   Divers  Orages  Givrage  Turbulence  Onde Orograph.  Cendres Volcan.






- Altitude de l'aérodrome : 2945 ft
- Code IATA : RGS


LEBG - Burgos

DERNIER METAR :
  • 171530Z 21004KT 180V240 9999 BKN011 OVC016 06/06 Q1008

METARs EXPIRÉS :
  • 171500Z 24008KT 9999 BKN007 OVC012 06/06 Q1008
  • 171430Z 25008KT 210V280 9999 OVC007 06/05 Q1008
  • 171400Z 22008KT 6000 OVC002 05/05 Q1009
  • 171330Z 22008KT 200V260 2700 BR -RA OVC002 05/05 Q1009
  • 171300Z 22009KT 4000 BR OVC003 05/04 Q1009

TAF TAF LEBG
Valide du 17 à 15h jusqu'au 18 à 00h UTC


171400Z 1715/1724 23010KT 9999 SCT020 SCT050
TEMPO 1715/1724 3000 RA BR BKN003
BECMG 1722/1724 VRB05KT



MET'MAP, la Météo Aéronautique d'un coup d'oeil ! - Copyright ORBIFLY Décembre 2007 - Disclaimer

ORBIFLY MET'MAP TEAM :

Programmation & Développement : Alexandra Zaïnal
Conception & Développement : Baudouin d'Aumeries
Co-Programmation & Développement : Marc-Olivier Méhu
Soutien technique & logistique : Manuel Goepfert

Contact : metmap@orbifly.com




SOURCES & CREDITS :

   NOAA